Time;durP1;ratioP1;P1;durP2;ratioP2;P2;SDS_P1;SDS_P2;PMS_P1;PMS_P2;Temp;Humidity;BMP_temperature;BMP_pressure;BME280_temperature;BME280_humidity;BME280_pressure;Samples;Min_cycle;Max_cycle;Signal;HPM_P1;HPM_P2
2024/01/26 00:02:04;;;;;;;1.75;1.65;;;18.60;59.50;;;;;;5051421;28;20202;-76
2024/01/26 00:04:30;;;;;;;2.35;1.90;;;18.60;59.50;;;;;;5068033;28;20229;-75
2024/01/26 00:06:56;;;;;;;1.90;1.70;;;18.60;59.50;;;;;;5084880;28;20720;-75
2024/01/26 00:09:22;;;;;;;1.40;1.30;;;18.60;59.50;;;;;;5085151;28;20186;-75
2024/01/26 00:11:49;;;;;;;1.73;1.63;;;18.60;59.50;;;;;;5084963;28;20273;-76
2024/01/26 00:14:15;;;;;;;1.75;1.65;;;18.70;59.60;;;;;;5084570;28;20202;-75
2024/01/26 00:16:40;;;;;;;1.50;1.40;;;18.60;59.50;;;;;;5051405;28;20244;-75
2024/01/26 00:19:06;;;;;;;1.98;1.83;;;18.60;59.50;;;;;;5052316;28;20236;-75
2024/01/26 00:21:33;;;;;;;1.60;1.50;;;18.60;59.50;;;;;;5052267;28;20301;-75
2024/01/26 00:23:59;;;;;;;1.80;1.70;;;18.60;60.10;;;;;;5051078;28;20186;-75
2024/01/26 00:26:24;;;;;;;1.50;1.40;;;18.60;59.50;;;;;;5052885;28;20236;-75
2024/01/26 00:28:51;;;;;;;1.75;1.30;;;18.60;59.50;;;;;;5085536;28;20278;-75
2024/01/26 00:31:18;;;;;;;1.92;1.73;;;18.60;59.50;;;;;;5034440;28;20248;-75
2024/01/26 00:33:45;;;;;;;1.60;1.50;;;18.60;59.50;;;;;;5051917;28;20624;-76
2024/01/26 00:36:13;;;;;;;1.42;1.33;;;18.60;59.50;;;;;;5067643;28;20224;-76
2024/01/26 00:38:40;;;;;;;1.55;1.45;;;18.60;59.50;;;;;;5084261;28;20187;-76
2024/01/26 00:41:06;;;;;;;1.33;1.30;;;18.60;59.50;;;;;;5051205;28;20185;-76
2024/01/26 00:43:32;;;;;;;1.30;1.25;;;18.60;59.50;;;;;;5084168;28;20194;-75
2024/01/26 00:45:57;;;;;;;1.60;1.50;;;18.60;59.50;;;;;;5034683;28;20214;-75
2024/01/26 00:48:23;;;;;;;1.50;1.40;;;18.60;59.50;;;;;;5067721;28;20288;-75
2024/01/26 00:50:50;;;;;;;2.05;1.85;;;18.60;59.50;;;;;;5051395;28;20285;-76
2024/01/26 00:53:19;;;;;;;1.25;1.20;;;18.60;59.50;;;;;;5084846;28;20201;-75
2024/01/26 00:55:44;;;;;;;1.67;1.58;;;18.60;59.50;;;;;;5043925;28;20234;-76
2024/01/26 00:58:10;;;;;;;1.50;1.40;;;18.60;59.50;;;;;;5051265;28;20229;-76
2024/01/26 01:00:36;;;;;;;1.45;1.33;;;18.60;59.50;;;;;;5083883;28;20575;-76
2024/01/26 01:03:04;;;;;;;1.50;1.40;;;18.60;59.50;;;;;;5084095;28;20216;-76
2024/01/26 01:05:30;;;;;;;1.10;1.10;;;18.60;59.50;;;;;;5051690;28;20314;-75
2024/01/26 01:07:56;;;;;;;1.50;1.40;;;18.60;59.50;;;;;;5084097;28;20271;-76
2024/01/26 01:10:23;;;;;;;1.30;1.20;;;18.60;60.10;;;;;;5067253;28;20193;-76
2024/01/26 01:12:49;;;;;;;1.70;1.20;;;18.60;59.50;;;;;;5051496;28;20225;-76
2024/01/26 01:15:17;;;;;;;1.38;1.17;;;18.60;59.50;;;;;;5083690;28;20300;-76
2024/01/26 01:17:47;;;;;;;1.38;1.17;;;18.60;59.50;;;;;;5050219;28;20249;-76
2024/01/26 01:20:13;;;;;;;1.20;1.10;;;18.60;59.50;;;;;;5050624;28;20201;-75
2024/01/26 01:22:41;;;;;;;1.40;1.30;;;18.60;59.50;;;;;;5083561;28;20186;-76
2024/01/26 01:25:13;;;;;;;1.52;1.42;;;18.60;59.50;;;;;;5083893;28;20213;-75
2024/01/26 01:27:40;;;;;;;1.25;1.15;;;18.60;59.50;;;;;;5051452;28;20222;-75
2024/01/26 01:30:08;;;;;;;1.30;1.10;;;18.60;59.50;;;;;;5050307;28;20198;-76
2024/01/26 01:32:34;;;;;;;0.98;0.98;;;18.60;59.50;;;;;;5049996;28;20201;-76
2024/01/26 01:35:01;;;;;;;1.35;1.27;;;18.60;59.50;;;;;;5051025;28;20230;-75
2024/01/26 01:37:27;;;;;;;1.00;1.00;;;18.60;59.60;;;;;;5050227;28;20190;-76
2024/01/26 01:39:52;;;;;;;0.93;0.93;;;18.60;59.60;;;;;;5050373;28;20186;-76
2024/01/26 01:42:18;;;;;;;1.33;1.23;;;18.60;59.50;;;;;;5050008;28;20201;-76
2024/01/26 01:44:46;;;;;;;1.00;1.00;;;18.60;59.60;;;;;;5033307;28;20581;-76
2024/01/26 01:47:14;;;;;;;1.50;1.40;;;18.60;59.60;;;;;;5058386;28;20206;-75
2024/01/26 01:49:42;;;;;;;1.27;1.20;;;18.60;59.50;;;;;;5058331;28;20198;-76
2024/01/26 01:52:18;;;;;;;1.00;1.00;;;18.60;59.60;;;;;;5041503;28;20179;-76
2024/01/26 01:54:44;;;;;;;0.98;0.95;;;18.60;59.60;;;;;;5050368;28;20205;-76
2024/01/26 01:57:14;;;;;;;1.10;1.10;;;18.60;60.20;;;;;;5049916;28;20194;-76
2024/01/26 01:59:43;;;;;;;1.00;1.00;;;18.60;59.60;;;;;;5049889;28;20228;-76
2024/01/26 02:02:09;;;;;;;1.08;1.00;;;18.60;59.60;;;;;;5050049;28;20195;-76
2024/01/26 02:04:35;;;;;;;1.40;1.30;;;18.60;59.50;;;;;;5066163;28;20210;-76
2024/01/26 02:07:04;;;;;;;1.38;1.23;;;18.60;59.60;;;;;;5049641;28;20221;-75
2024/01/26 02:09:30;;;;;;;1.13;1.02;;;18.60;59.60;;;;;;5034708;28;20190;-76
2024/01/26 02:11:56;;;;;;;1.35;1.25;;;18.60;59.60;;;;;;5053860;28;20191;-76
2024/01/26 02:14:23;;;;;;;1.00;1.00;;;18.60;59.60;;;;;;5053406;28;20208;-76
2024/01/26 02:16:52;;;;;;;1.20;1.10;;;18.60;59.60;;;;;;5065277;28;20615;-76
2024/01/26 02:19:18;;;;;;;1.10;1.10;;;18.60;59.60;;;;;;5057352;28;20202;-76
2024/01/26 02:21:44;;;;;;;1.17;1.10;;;18.60;59.60;;;;;;5061948;28;20193;-76
2024/01/26 02:24:09;;;;;;;0.88;0.88;;;18.60;59.70;;;;;;5054320;28;20255;-76
2024/01/26 02:26:35;;;;;;;1.00;1.00;;;18.60;59.60;;;;;;5062047;28;20564;-76
2024/01/26 02:29:01;;;;;;;0.73;0.73;;;18.60;59.60;;;;;;5072582;28;20203;-75
2024/01/26 02:31:26;;;;;;;1.00;1.00;;;18.60;59.60;;;;;;5047110;28;20225;-75
2024/01/26 02:33:52;;;;;;;0.93;0.93;;;18.60;59.60;;;;;;5053401;28;20179;-74
2024/01/26 02:36:18;;;;;;;0.90;0.90;;;18.60;59.60;;;;;;5060475;28;20241;-76
2024/01/26 02:38:43;;;;;;;0.90;0.90;;;18.60;59.60;;;;;;5054633;28;20189;-76
2024/01/26 02:41:09;;;;;;;1.00;1.00;;;18.60;59.60;;;;;;5053269;28;20197;-76
2024/01/26 02:43:35;;;;;;;1.10;1.10;;;18.60;59.60;;;;;;5053909;28;20233;-75
2024/01/26 02:46:00;;;;;;;1.08;1.05;;;18.60;59.60;;;;;;5041803;28;20285;-75
2024/01/26 02:48:26;;;;;;;1.00;0.90;;;18.60;59.60;;;;;;5043580;28;20271;-76
2024/01/26 02:50:52;;;;;;;1.00;1.00;;;18.60;59.60;;;;;;5053027;28;20236;-76
2024/01/26 02:53:18;;;;;;;0.90;0.90;;;18.60;59.60;;;;;;5052728;28;20232;-75
2024/01/26 02:55:43;;;;;;;0.85;0.85;;;18.60;59.60;;;;;;5038080;28;20212;-76
2024/01/26 02:58:09;;;;;;;0.75;0.75;;;18.60;59.60;;;;;;5057666;28;20186;-76
2024/01/26 03:00:35;;;;;;;1.02;0.90;;;18.60;59.50;;;;;;5035962;28;20174;-76
2024/01/26 03:03:00;;;;;;;0.98;0.90;;;18.60;59.60;;;;;;5036226;28;20193;-76
2024/01/26 03:05:26;;;;;;;0.80;0.80;;;18.60;59.60;;;;;;5035871;28;20202;-76
2024/01/26 03:07:52;;;;;;;1.00;0.93;;;18.60;59.60;;;;;;5052717;28;20699;-76
2024/01/26 03:10:18;;;;;;;1.00;0.90;;;18.60;59.60;;;;;;5035878;28;20175;-76
2024/01/26 03:12:43;;;;;;;0.80;0.70;;;18.60;59.60;;;;;;5035933;28;20530;-75
2024/01/26 03:15:09;;;;;;;0.65;0.65;;;18.60;59.60;;;;;;5041781;28;20544;-75
2024/01/26 03:17:35;;;;;;;0.80;0.80;;;18.60;59.60;;;;;;5058853;28;20182;-74
2024/01/26 03:20:02;;;;;;;1.05;1.00;;;18.60;59.60;;;;;;5059805;28;20185;-75
2024/01/26 03:22:28;;;;;;;0.82;0.82;;;18.60;59.60;;;;;;5059017;28;20199;-75
2024/01/26 03:24:53;;;;;;;0.80;0.80;;;18.60;59.60;;;;;;5052682;28;20212;-74
2024/01/26 03:27:19;;;;;;;0.80;0.80;;;18.60;59.60;;;;;;5042598;28;20218;-74
2024/01/26 03:29:45;;;;;;;0.95;0.75;;;18.60;59.60;;;;;;5053228;28;20186;-75
2024/01/26 03:32:10;;;;;;;0.88;0.80;;;18.60;59.60;;;;;;5061909;28;20240;-74
2024/01/26 03:34:36;;;;;;;0.60;0.60;;;18.60;59.60;;;;;;5052136;28;20704;-74
2024/01/26 03:37:02;;;;;;;0.85;0.85;;;18.60;59.60;;;;;;5041923;28;20190;-74
2024/01/26 03:39:28;;;;;;;0.60;0.60;;;18.60;59.60;;;;;;5058878;28;20189;-75
2024/01/26 03:41:53;;;;;;;1.40;0.80;;;18.60;59.60;;;;;;5058751;28;20178;-75
2024/01/26 03:44:19;;;;;;;0.73;0.73;;;18.60;59.60;;;;;;5051906;28;20236;-75
2024/01/26 03:46:45;;;;;;;0.70;0.70;;;18.60;59.60;;;;;;5041633;28;20198;-75
2024/01/26 03:49:11;;;;;;;0.65;0.65;;;18.60;59.60;;;;;;5052040;28;20285;-75
2024/01/26 03:51:37;;;;;;;0.60;0.60;;;18.60;59.60;;;;;;5051351;28;20187;-75
2024/01/26 03:54:03;;;;;;;1.95;0.70;;;18.60;59.60;;;;;;5059247;28;20187;-75
2024/01/26 03:56:29;;;;;;;1.02;0.90;;;18.60;59.60;;;;;;5052237;28;20193;-75
2024/01/26 03:58:55;;;;;;;0.98;0.70;;;18.60;59.60;;;;;;5041453;28;20174;-75
2024/01/26 04:01:21;;;;;;;0.90;0.90;;;18.60;59.60;;;;;;5051729;28;20662;-75
2024/01/26 04:03:47;;;;;;;0.80;0.80;;;18.60;59.60;;;;;;5096411;28;20191;-75
2024/01/26 04:06:13;;;;;;;0.70;0.70;;;18.60;59.60;;;;;;5051534;28;20703;-75
2024/01/26 04:08:39;;;;;;;0.80;0.80;;;18.60;59.60;;;;;;5041343;28;20557;-75
2024/01/26 04:11:05;;;;;;;0.60;0.60;;;18.60;59.50;;;;;;5057728;28;20198;-75
2024/01/26 04:13:31;;;;;;;0.60;0.60;;;18.60;59.60;;;;;;5063726;28;20190;-75
2024/01/26 04:15:56;;;;;;;1.02;0.93;;;18.60;59.60;;;;;;5068183;28;20218;-76
2024/01/26 04:18:22;;;;;;;0.80;0.80;;;18.60;59.60;;;;;;5051240;28;20190;-75
2024/01/26 04:20:48;;;;;;;0.80;0.77;;;18.60;59.60;;;;;;5067792;28;20190;-75
2024/01/26 04:23:15;;;;;;;1.10;1.00;;;18.60;59.60;;;;;;5056591;28;20185;-75
2024/01/26 04:25:41;;;;;;;0.60;0.60;;;18.60;59.60;;;;;;5052217;28;20237;-75
2024/01/26 04:28:07;;;;;;;0.80;0.80;;;18.60;59.60;;;;;;5081552;28;20302;-75
2024/01/26 04:30:34;;;;;;;0.70;0.70;;;18.60;59.60;;;;;;5051143;28;20240;-75
2024/01/26 04:33:01;;;;;;;0.60;0.60;;;18.60;59.60;;;;;;5056391;28;20232;-75
2024/01/26 04:35:27;;;;;;;0.65;0.65;;;18.60;59.60;;;;;;5050777;28;20217;-75
2024/01/26 04:37:53;;;;;;;0.65;0.65;;;18.60;59.60;;;;;;5067846;28;20191;-75
2024/01/26 04:40:19;;;;;;;0.60;0.60;;;18.60;59.60;;;;;;5039832;28;20177;-75
2024/01/26 04:42:45;;;;;;;1.15;0.70;;;18.60;59.60;;;;;;5037895;28;20210;-75
2024/01/26 04:45:11;;;;;;;0.98;0.70;;;18.60;59.60;;;;;;5034190;28;20689;-76
2024/01/26 04:47:36;;;;;;;0.73;0.73;;;18.60;59.60;;;;;;5056573;28;20246;-75
2024/01/26 04:50:03;;;;;;;0.90;0.90;;;18.60;59.60;;;;;;5070316;28;20305;-75
2024/01/26 04:52:29;;;;;;;0.98;0.70;;;18.60;59.60;;;;;;5058818;28;20193;-75
2024/01/26 04:54:55;;;;;;;0.80;0.80;;;18.60;59.60;;;;;;5066765;28;20214;-75
2024/01/26 04:57:21;;;;;;;0.65;0.65;;;18.60;59.60;;;;;;5067391;28;20190;-75
2024/01/26 04:59:47;;;;;;;0.70;0.70;;;18.60;59.60;;;;;;5053942;28;20243;-75
2024/01/26 05:02:12;;;;;;;1.05;0.70;;;18.60;59.60;;;;;;5050774;28;20264;-75
2024/01/26 05:04:38;;;;;;;0.77;0.77;;;18.50;59.50;;;;;;5050227;28;20232;-75
2024/01/26 05:07:04;;;;;;;0.90;0.80;;;18.60;59.60;;;;;;5051501;28;20205;-75
2024/01/26 05:09:30;;;;;;;0.70;0.70;;;18.60;59.60;;;;;;5056107;28;20190;-75
2024/01/26 05:11:55;;;;;;;0.65;0.65;;;18.60;60.30;;;;;;5050722;28;20191;-75
2024/01/26 05:14:22;;;;;;;0.50;0.50;;;18.60;59.60;;;;;;5050145;28;20285;-75
2024/01/26 05:16:48;;;;;;;0.60;0.60;;;18.60;59.60;;;;;;5077976;28;20239;-75
2024/01/26 05:19:14;;;;;;;0.75;0.75;;;18.60;59.60;;;;;;5050218;28;20182;-75
2024/01/26 05:21:40;;;;;;;0.70;0.70;;;18.60;59.60;;;;;;5051480;28;20191;-75
2024/01/26 05:24:06;;;;;;;0.77;0.77;;;18.60;59.60;;;;;;5049996;28;20187;-74
2024/01/26 05:26:32;;;;;;;0.60;0.60;;;18.60;59.60;;;;;;5033628;28;20243;-74
2024/01/26 05:28:58;;;;;;;0.70;0.70;;;18.50;59.50;;;;;;5059596;28;20190;-74
2024/01/26 05:31:23;;;;;;;0.70;0.70;;;18.50;59.50;;;;;;5038879;28;20197;-74
2024/01/26 05:33:49;;;;;;;0.60;0.60;;;18.50;59.50;;;;;;5050361;28;20183;-74
2024/01/26 05:36:15;;;;;;;0.60;0.60;;;18.50;59.60;;;;;;5033859;28;20258;-74
2024/01/26 05:38:41;;;;;;;0.57;0.57;;;18.50;59.50;;;;;;5056489;28;20215;-74
2024/01/26 05:41:06;;;;;;;0.60;0.60;;;18.50;59.50;;;;;;5086904;28;20186;-75
2024/01/26 05:43:32;;;;;;;0.65;0.65;;;18.50;59.50;;;;;;5053851;28;20197;-74
2024/01/26 05:45:58;;;;;;;0.68;0.68;;;18.60;59.60;;;;;;5055362;28;20343;-74
2024/01/26 05:48:24;;;;;;;0.80;0.80;;;18.60;59.60;;;;;;5055436;28;20225;-74
2024/01/26 05:50:50;;;;;;;0.60;0.60;;;18.60;59.60;;;;;;5055500;28;20202;-74
2024/01/26 05:53:15;;;;;;;0.80;0.80;;;18.50;59.50;;;;;;5037753;28;20243;-74
2024/01/26 05:55:41;;;;;;;0.70;0.70;;;18.50;59.50;;;;;;5037047;28;20210;-74
2024/01/26 05:58:07;;;;;;;0.70;0.70;;;18.50;59.60;;;;;;5054007;28;20186;-74
2024/01/26 06:00:33;;;;;;;0.70;0.70;;;18.50;59.50;;;;;;5054033;28;20190;-75
2024/01/26 06:02:58;;;;;;;0.70;0.70;;;18.50;59.60;;;;;;5055037;28;20194;-75
2024/01/26 06:05:24;;;;;;;0.60;0.60;;;18.50;59.50;;;;;;5053626;28;20213;-74
2024/01/26 06:07:50;;;;;;;1.85;0.70;;;18.50;59.50;;;;;;5053500;28;20237;-75
2024/01/26 06:10:16;;;;;;;0.80;0.80;;;18.50;59.50;;;;;;5037415;28;20191;-75
2024/01/26 06:12:41;;;;;;;0.80;0.80;;;18.50;59.60;;;;;;5074997;28;20229;-74
2024/01/26 06:15:09;;;;;;;0.70;0.70;;;18.50;59.50;;;;;;5053495;28;20229;-74
2024/01/26 06:17:35;;;;;;;0.73;0.70;;;18.50;59.50;;;;;;5053945;28;20190;-74
2024/01/26 06:20:03;;;;;;;0.60;0.60;;;18.50;59.50;;;;;;5053626;28;20198;-75
2024/01/26 06:22:30;;;;;;;1.10;0.90;;;18.50;59.60;;;;;;5059291;28;20269;-74
2024/01/26 06:24:56;;;;;;;1.27;0.93;;;18.50;59.40;;;;;;5054252;28;20256;-74
2024/01/26 06:27:21;;;;;;;0.80;0.80;;;18.50;59.50;;;;;;5071047;28;20236;-74
2024/01/26 06:29:47;;;;;;;0.77;0.77;;;18.50;59.50;;;;;;5054791;28;20195;-73
2024/01/26 06:32:13;;;;;;;0.65;0.65;;;18.50;59.40;;;;;;5053273;28;20677;-73
2024/01/26 06:34:40;;;;;;;0.80;0.80;;;18.50;59.40;;;;;;5054017;28;20209;-73
2024/01/26 06:37:06;;;;;;;0.68;0.68;;;18.50;59.40;;;;;;5090969;28;20213;-73
2024/01/26 06:39:35;;;;;;;0.85;0.77;;;18.50;59.40;;;;;;5053407;28;20197;-73
2024/01/26 06:42:00;;;;;;;0.85;0.85;;;18.50;59.40;;;;;;5058375;28;21149;-73
2024/01/26 06:44:26;;;;;;;1.48;0.90;;;18.50;59.40;;;;;;5057057;28;20209;-73
2024/01/26 06:46:52;;;;;;;1.05;0.90;;;18.50;59.40;;;;;;5052801;28;20230;-73
2024/01/26 06:49:17;;;;;;;0.70;0.70;;;18.50;59.40;;;;;;5036554;28;20188;-73
2024/01/26 06:51:43;;;;;;;0.70;0.70;;;18.50;59.40;;;;;;5054439;28;20258;-73
2024/01/26 06:54:09;;;;;;;0.70;0.70;;;18.50;59.40;;;;;;5053474;28;20190;-73
2024/01/26 06:56:34;;;;;;;0.80;0.70;;;18.50;59.40;;;;;;5052696;28;20201;-73
2024/01/26 06:59:01;;;;;;;0.70;0.70;;;18.50;59.40;;;;;;5052998;28;20201;-73
2024/01/26 07:01:27;;;;;;;1.15;0.80;;;18.50;59.40;;;;;;5052743;28;20217;-73
2024/01/26 07:03:53;;;;;;;0.70;0.70;;;18.50;59.40;;;;;;5057718;28;20677;-73
2024/01/26 07:06:19;;;;;;;0.90;0.90;;;18.50;59.40;;;;;;5038993;28;20182;-73
2024/01/26 07:08:44;;;;;;;0.90;0.75;;;18.50;59.40;;;;;;5053860;28;20206;-73
2024/01/26 07:11:11;;;;;;;0.85;0.85;;;18.50;59.40;;;;;;5060915;28;20790;-73
2024/01/26 07:13:36;;;;;;;0.80;0.80;;;18.50;59.40;;;;;;5057787;28;20224;-73
2024/01/26 07:16:02;;;;;;;1.33;0.70;;;18.50;59.40;;;;;;5057397;28;20230;-73
2024/01/26 07:18:28;;;;;;;0.85;0.85;;;18.50;59.40;;;;;;5036135;28;20186;-73
2024/01/26 07:20:54;;;;;;;0.60;0.60;;;18.40;59.30;;;;;;5057715;28;20200;-73
2024/01/26 07:23:19;;;;;;;0.70;0.70;;;18.50;59.40;;;;;;5039598;28;20228;-73
2024/01/26 07:25:45;;;;;;;0.80;0.80;;;18.50;59.40;;;;;;5039094;28;20217;-73
2024/01/26 07:28:11;;;;;;;0.88;0.88;;;18.50;59.40;;;;;;5072683;28;20214;-73
2024/01/26 07:30:37;;;;;;;0.88;0.60;;;18.50;59.40;;;;;;5041077;28;20195;-74
2024/01/26 07:33:03;;;;;;;2.03;0.80;;;18.50;59.40;;;;;;5068846;28;20189;-73
2024/01/26 07:35:28;;;;;;;0.70;0.70;;;18.50;59.40;;;;;;5059287;28;20683;-73
2024/01/26 07:37:54;;;;;;;0.75;0.75;;;18.50;59.40;;;;;;5055640;28;20240;-73
2024/01/26 07:40:20;;;;;;;0.93;0.85;;;18.50;59.40;;;;;;5053270;28;20194;-73
2024/01/26 07:42:45;;;;;;;0.98;0.98;;;18.50;59.40;;;;;;5042388;28;20622;-73
2024/01/26 07:45:13;;;;;;;0.80;0.80;;;18.50;59.40;;;;;;5068554;28;20220;-73
2024/01/26 07:47:39;;;;;;;1.02;0.93;;;18.50;59.40;;;;;;5040677;28;20293;-74
2024/01/26 07:50:05;;;;;;;1.70;0.80;;;18.50;59.40;;;;;;5085488;28;20314;-73
2024/01/26 07:52:31;;;;;;;0.80;0.80;;;18.50;59.40;;;;;;5051849;28;20218;-73
2024/01/26 07:54:57;;;;;;;0.88;0.80;;;18.50;59.40;;;;;;5031832;28;20250;-73
2024/01/26 07:57:25;;;;;;;0.90;0.90;;;18.50;59.40;;;;;;5071729;28;20197;-73
2024/01/26 07:59:51;;;;;;;1.80;1.00;;;18.50;59.40;;;;;;5085151;28;20198;-73
2024/01/26 08:02:17;;;;;;;0.80;0.80;;;18.50;59.40;;;;;;5052683;28;20224;-73
2024/01/26 08:04:43;;;;;;;0.93;0.93;;;18.50;59.40;;;;;;5071306;28;20214;-73
2024/01/26 08:07:08;;;;;;;0.80;0.80;;;18.50;59.40;;;;;;5050349;28;20218;-73
2024/01/26 08:09:34;;;;;;;1.45;1.00;;;18.50;59.40;;;;;;5038099;28;20286;-73
2024/01/26 08:12:00;;;;;;;0.70;0.70;;;18.50;59.40;;;;;;5056054;28;20195;-73
2024/01/26 08:14:26;;;;;;;0.82;0.82;;;18.50;59.40;;;;;;5040698;28;20206;-73
2024/01/26 08:16:52;;;;;;;0.70;0.70;;;18.50;59.50;;;;;;5051350;28;20194;-73
2024/01/26 08:19:17;;;;;;;1.00;0.90;;;18.50;59.40;;;;;;5051476;28;20190;-74
2024/01/26 08:21:43;;;;;;;1.00;0.90;;;18.50;59.40;;;;;;5054307;28;20182;-73
2024/01/26 08:24:09;;;;;;;0.80;0.80;;;18.50;59.40;;;;;;5053919;28;20576;-73
2024/01/26 08:26:35;;;;;;;0.90;0.90;;;18.50;59.40;;;;;;5052106;28;20194;-73
2024/01/26 08:29:01;;;;;;;1.08;0.98;;;18.50;59.50;;;;;;5052315;28;20195;-73
2024/01/26 08:31:27;;;;;;;2.35;0.88;;;18.50;59.40;;;;;;5054283;28;20269;-73
2024/01/26 08:33:53;;;;;;;0.85;0.80;;;18.50;59.50;;;;;;5087538;28;20653;-73
2024/01/26 08:36:19;;;;;;;0.90;0.90;;;18.50;59.50;;;;;;5056190;28;20190;-73
2024/01/26 08:38:45;;;;;;;1.58;0.90;;;18.50;59.50;;;;;;5051132;28;20201;-73
2024/01/26 08:41:11;;;;;;;1.67;1.00;;;18.50;59.50;;;;;;5037298;28;20290;-73
2024/01/26 08:43:37;;;;;;;0.75;0.75;;;18.50;59.50;;;;;;5050650;28;20213;-73
2024/01/26 08:46:03;;;;;;;1.98;0.90;;;18.50;59.50;;;;;;5050825;28;20218;-72
2024/01/26 08:48:29;;;;;;;0.77;0.77;;;18.50;59.60;;;;;;5052892;28;20255;-73
2024/01/26 08:50:55;;;;;;;1.02;0.88;;;18.50;59.50;;;;;;5053672;28;20282;-73
2024/01/26 08:53:20;;;;;;;0.70;0.70;;;18.50;59.60;;;;;;5054462;28;20186;-73
2024/01/26 08:55:46;;;;;;;0.80;0.80;;;18.50;59.60;;;;;;5046300;28;20221;-73
2024/01/26 08:58:12;;;;;;;0.98;0.98;;;18.50;59.60;;;;;;5038859;28;20187;-73
2024/01/26 09:00:38;;;;;;;0.93;0.70;;;18.50;59.60;;;;;;5050582;28;20190;-73
2024/01/26 09:03:04;;;;;;;0.85;0.80;;;18.50;59.60;;;;;;5052775;28;20204;-73
2024/01/26 09:05:30;;;;;;;0.80;0.80;;;18.50;59.60;;;;;;5050243;28;20232;-73
2024/01/26 09:07:57;;;;;;;1.27;0.98;;;18.50;59.60;;;;;;5058890;28;20687;-73
2024/01/26 09:10:24;;;;;;;0.70;0.70;;;18.50;59.70;;;;;;5050615;28;20198;-73
2024/01/26 09:12:50;;;;;;;0.90;0.90;;;18.50;59.60;;;;;;5057872;28;20578;-73
2024/01/26 09:15:16;;;;;;;1.13;0.80;;;18.50;59.60;;;;;;5051874;28;20213;-73
2024/01/26 09:17:41;;;;;;;0.98;0.80;;;18.50;59.60;;;;;;5033320;28;20194;-73
2024/01/26 09:20:09;;;;;;;1.67;1.00;;;18.60;59.70;;;;;;5050340;28;20191;-73
2024/01/26 09:22:35;;;;;;;0.60;0.60;;;18.60;59.70;;;;;;5050559;28;20194;-73
2024/01/26 09:25:00;;;;;;;0.70;0.70;;;18.60;59.60;;;;;;5083910;28;20240;-73
2024/01/26 09:27:26;;;;;;;0.80;0.80;;;18.60;59.60;;;;;;5066857;28;20723;-73
2024/01/26 09:29:53;;;;;;;1.40;0.90;;;18.60;59.60;;;;;;5052824;28;20293;-73
2024/01/26 09:32:19;;;;;;;0.80;0.80;;;18.60;59.60;;;;;;5050057;28;20196;-73
2024/01/26 09:34:45;;;;;;;0.80;0.80;;;18.60;59.60;;;;;;5051046;28;20207;-73
2024/01/26 09:37:11;;;;;;;0.57;0.57;;;18.60;59.60;;;;;;5051226;28;20194;-73
2024/01/26 09:39:36;;;;;;;0.98;0.80;;;18.60;59.60;;;;;;5051290;28;20179;-73
2024/01/26 09:42:03;;;;;;;1.15;1.05;;;18.60;59.60;;;;;;5030594;28;20218;-73
2024/01/26 09:44:29;;;;;;;1.10;1.00;;;18.60;59.60;;;;;;5082909;28;20229;-73
2024/01/26 09:46:57;;;;;;;0.82;0.82;;;18.60;59.70;;;;;;5049961;28;20299;-73
2024/01/26 09:49:27;;;;;;;2.25;1.10;;;18.60;59.70;;;;;;5051144;28;20193;-73
2024/01/26 09:51:53;;;;;;;0.98;0.98;;;18.60;59.60;;;;;;5049951;28;20186;-73
2024/01/26 09:54:20;;;;;;;0.80;0.80;;;18.60;59.60;;;;;;5052763;28;20202;-73
2024/01/26 09:56:47;;;;;;;0.80;0.77;;;18.60;59.60;;;;;;5066743;28;20187;-73
2024/01/26 09:59:13;;;;;;;0.70;0.60;;;18.70;59.80;;;;;;5050053;28;20278;-73
2024/01/26 10:01:41;;;;;;;1.27;0.93;;;18.60;59.60;;;;;;5049731;28;20250;-73
2024/01/26 10:04:08;;;;;;;1.10;1.02;;;18.60;59.60;;;;;;5084940;28;20274;-74
2024/01/26 10:06:34;;;;;;;0.88;0.80;;;18.70;59.80;;;;;;5050942;28;20529;-73
2024/01/26 10:09:01;;;;;;;2.33;1.00;;;18.60;59.80;;;;;;5054366;28;20186;-73
2024/01/26 10:11:27;;;;;;;1.58;0.90;;;18.60;61.10;;;;;;5052545;28;20277;-73
2024/01/26 10:13:53;;;;;;;1.23;1.13;;;18.70;60.90;;;;;;5034658;28;20221;-73
2024/01/26 10:16:18;;;;;;;1.50;0.90;;;18.70;60.90;;;;;;5050781;28;20323;-73
2024/01/26 10:18:47;;;;;;;2.03;1.08;;;18.70;60.80;;;;;;5051333;28;20190;-73
2024/01/26 10:21:15;;;;;;;0.77;0.77;;;18.70;60.70;;;;;;5033091;28;20269;-73
2024/01/26 10:23:42;;;;;;;3.28;0.98;;;18.70;60.70;;;;;;5050814;28;20214;-74
2024/01/26 10:26:10;;;;;;;1.35;0.90;;;18.70;61.40;;;;;;5052414;28;20301;-73
2024/01/26 10:28:36;;;;;;;2.30;0.88;;;18.70;60.60;;;;;;5049409;28;20252;-73
2024/01/26 10:31:02;;;;;;;1.15;1.02;;;18.60;60.60;;;;;;5051981;28;20198;-73
2024/01/26 10:33:31;;;;;;;2.05;1.10;;;18.60;60.60;;;;;;5054502;28;20198;-73
2024/01/26 10:36:01;;;;;;;0.88;0.70;;;18.60;60.60;;;;;;5056048;28;20212;-74
2024/01/26 10:38:31;;;;;;;4.18;1.35;;;18.60;60.60;;;;;;5088227;28;20198;-73
2024/01/26 10:41:05;;;;;;;1.98;0.88;;;18.60;60.90;;;;;;5054467;28;20205;-73
2024/01/26 10:43:31;;;;;;;1.33;1.02;;;18.60;60.50;;;;;;5053166;28;20244;-73
2024/01/26 10:45:59;;;;;;;1.08;0.93;;;18.60;60.60;;;;;;5054172;28;20225;-73
2024/01/26 10:48:26;;;;;;;1.38;0.90;;;18.60;60.50;;;;;;5072068;28;20249;-73
2024/01/26 10:50:54;;;;;;;1.00;0.77;;;18.60;60.50;;;;;;5054318;28;20405;-73
2024/01/26 10:53:21;;;;;;;2.25;1.00;;;18.60;60.50;;;;;;5053605;28;20194;-73
2024/01/26 10:55:49;;;;;;;1.88;0.80;;;18.60;60.50;;;;;;5048703;28;20213;-73
2024/01/26 10:58:15;;;;;;;1.08;0.75;;;18.60;60.40;;;;;;5061111;28;20200;-73
2024/01/26 11:00:42;;;;;;;1.85;0.80;;;18.60;60.40;;;;;;5052860;28;20190;-73
2024/01/26 11:03:09;;;;;;;0.98;0.80;;;18.60;60.40;;;;;;5086474;28;20264;-73
2024/01/26 11:05:35;;;;;;;1.00;0.90;;;18.60;60.40;;;;;;5057091;28;20214;-74
2024/01/26 11:08:19;;;;;;;1.02;0.90;;;18.60;60.40;;;;;;5058474;28;20260;-73
2024/01/26 11:10:47;;;;;;;1.48;1.13;;;18.60;60.40;;;;;;5052775;28;20185;-73
2024/01/26 11:13:15;;;;;;;1.50;1.02;;;18.70;60.50;;;;;;5086082;28;20193;-73
2024/01/26 11:15:43;;;;;;;0.73;0.73;;;18.60;60.40;;;;;;5069054;28;20206;-73
2024/01/26 11:18:23;;;;;;;1.30;1.00;;;18.60;60.40;;;;;;5053510;28;20198;-73
2024/01/26 11:20:49;;;;;;;0.90;0.90;;;18.60;60.40;;;;;;5051616;28;20229;-73
2024/01/26 11:23:16;;;;;;;1.33;0.85;;;18.60;60.40;;;;;;5069376;28;20187;-73
2024/01/26 11:25:43;;;;;;;1.60;1.13;;;18.60;60.40;;;;;;5069584;28;20672;-74
2024/01/26 11:28:14;;;;;;;1.52;1.00;;;18.60;60.40;;;;;;5086082;28;20222;-75
2024/01/26 11:30:40;;;;;;;1.10;0.98;;;18.60;60.40;;;;;;5086044;28;20213;-73
2024/01/26 11:33:23;;;;;;;0.82;0.70;;;18.60;60.40;;;;;;5032262;28;20187;-73
2024/01/26 11:35:49;;;;;;;2.20;0.85;;;18.60;60.40;;;;;;5050764;28;20244;-74
2024/01/26 11:38:18;;;;;;;2.10;1.20;;;18.60;60.40;;;;;;5068917;28;20194;-74
2024/01/26 11:40:45;;;;;;;0.80;0.80;;;18.60;60.40;;;;;;5052043;28;20191;-74
2024/01/26 11:43:11;;;;;;;1.10;0.73;;;18.60;60.40;;;;;;5068816;28;20194;-73
2024/01/26 11:45:46;;;;;;;0.98;0.80;;;18.60;60.40;;;;;;5036591;28;20223;-73
2024/01/26 11:48:14;;;;;;;0.70;0.68;;;18.60;60.40;;;;;;5056261;28;20305;-74
2024/01/26 11:50:43;;;;;;;1.10;1.00;;;18.60;60.40;;;;;;5052097;28;20197;-73
2024/01/26 11:53:10;;;;;;;1.13;0.93;;;18.60;60.40;;;;;;5051982;28;20198;-73
2024/01/26 11:55:38;;;;;;;1.23;0.90;;;18.60;60.40;;;;;;5051734;28;20210;-73
2024/01/26 11:58:06;;;;;;;1.00;0.90;;;18.60;60.40;;;;;;5051705;28;20234;-73
2024/01/26 12:00:33;;;;;;;2.78;1.20;;;18.60;60.40;;;;;;5051537;28;20201;-73
2024/01/26 12:02:59;;;;;;;1.00;0.85;;;18.60;60.40;;;;;;5051701;28;20202;-73
2024/01/26 12:05:26;;;;;;;0.90;0.90;;;18.60;60.40;;;;;;5051717;28;20229;-73
2024/01/26 12:07:55;;;;;;;0.70;0.70;;;18.60;61.10;;;;;;5088745;28;20239;-74
2024/01/26 12:10:23;;;;;;;0.75;0.73;;;18.60;60.40;;;;;;5034733;28;20272;-74
2024/01/26 12:12:49;;;;;;;0.85;0.85;;;18.60;60.40;;;;;;5046542;28;20187;-74
2024/01/26 12:15:16;;;;;;;0.95;0.70;;;18.60;60.40;;;;;;5057739;28;20263;-74
2024/01/26 12:17:42;;;;;;;0.95;0.85;;;18.60;60.40;;;;;;5059580;28;20233;-74
2024/01/26 12:20:10;;;;;;;1.65;1.00;;;18.60;60.40;;;;;;5069640;28;20194;-74
2024/01/26 12:22:37;;;;;;;1.35;0.90;;;18.60;60.40;;;;;;5054503;28;20191;-74
2024/01/26 12:25:06;;;;;;;1.92;0.90;;;18.60;60.50;;;;;;5066294;28;20221;-73
2024/01/26 12:27:34;;;;;;;0.70;0.70;;;18.60;60.40;;;;;;5047683;28;20226;-74
2024/01/26 12:30:00;;;;;;;0.95;0.80;;;18.60;60.40;;;;;;5067645;28;20179;-73
2024/01/26 12:32:25;;;;;;;1.25;0.80;;;18.60;60.40;;;;;;5057871;28;20187;-74
2024/01/26 12:34:51;;;;;;;1.20;1.10;;;18.60;60.40;;;;;;5031391;28;20249;-74
2024/01/26 12:37:17;;;;;;;1.70;0.80;;;18.60;60.40;;;;;;5067972;28;20186;-74
2024/01/26 12:39:43;;;;;;;1.00;1.00;;;18.60;60.40;;;;;;5034367;28;20194;-74
2024/01/26 12:42:08;;;;;;;1.05;0.95;;;18.60;60.40;;;;;;5059137;28;20190;-74
2024/01/26 12:44:36;;;;;;;0.90;0.90;;;18.60;60.40;;;;;;5059679;28;20269;-74